createdAt,value
2023-04-21T00:04:50.318Z,99235.50
2023-04-21T00:09:58.000Z,99229.94
2023-04-21T00:15:06.077Z,99225.34
2023-04-21T00:20:14.818Z,99228.19
2023-04-21T00:25:23.183Z,99222.14
2023-04-21T00:30:30.626Z,99219.02
2023-04-21T00:35:39.018Z,99218.17
2023-04-21T00:40:46.338Z,99211.56
2023-04-21T00:45:53.627Z,99212.23
2023-04-21T00:51:00.881Z,99211.27
2023-04-21T00:56:08.859Z,99213.23
2023-04-21T01:01:16.301Z,99208.48
2023-04-21T01:06:24.270Z,99205.88
2023-04-21T01:11:31.914Z,99204.08
2023-04-21T01:16:40.105Z,99204.71
2023-04-21T01:21:47.396Z,99205.32
2023-04-21T01:26:54.807Z,99211.54
2023-04-21T01:32:05.208Z,99210.10
2023-04-21T01:37:14.462Z,99209.95
2023-04-21T01:42:24.074Z,99208.97
2023-04-21T01:47:31.452Z,99207.15
2023-04-21T01:52:39.102Z,99204.57
2023-04-21T01:57:46.652Z,99205.23
2023-04-21T02:02:53.907Z,99202.00
2023-04-21T02:08:03.220Z,99203.13
2023-04-21T02:13:11.040Z,99205.39
2023-04-21T02:18:20.438Z,99203.88
2023-04-21T02:23:28.198Z,99213.95
2023-04-21T02:28:35.754Z,99211.77
2023-04-21T02:33:43.385Z,99211.16
2023-04-21T02:38:52.897Z,99211.66
2023-04-21T02:44:00.519Z,99218.25
2023-04-21T02:49:08.603Z,99214.74
2023-04-21T02:54:15.974Z,99215.86
2023-04-21T02:59:23.388Z,99219.81
2023-04-21T03:04:32.930Z,99214.23
2023-04-21T03:09:40.600Z,99214.52
2023-04-21T03:14:48.119Z,99215.05
2023-04-21T03:19:55.309Z,99220.59
2023-04-21T03:25:02.929Z,99216.70
2023-04-21T03:30:14.275Z,99221.27
2023-04-21T03:38:10.019Z,99218.40
2023-04-21T03:43:17.119Z,99214.66
2023-04-21T03:48:22.674Z,99219.63
2023-04-21T03:53:29.771Z,99224.63
2023-04-21T03:58:35.778Z,99225.59
2023-04-21T04:03:43.026Z,99228.37
2023-04-21T04:08:50.507Z,99231.77
2023-04-21T04:13:58.122Z,99232.71
2023-04-21T04:19:05.186Z,99238.85
2023-04-21T04:24:14.223Z,99239.02
2023-04-21T04:29:22.002Z,99247.92
2023-04-21T04:34:29.153Z,99255.77
2023-04-21T04:39:34.595Z,99262.94
2023-04-21T04:44:42.717Z,99263.67
2023-04-21T04:49:49.810Z,99263.34
2023-04-21T04:54:57.084Z,99261.48
2023-04-21T05:05:33.692Z,99268.74
2023-04-21T05:10:41.006Z,99273.36
2023-04-21T05:15:48.521Z,99274.91
2023-04-21T05:20:56.929Z,99280.30
2023-04-21T05:26:04.968Z,99275.42
2023-04-21T05:31:12.607Z,99278.56
2023-04-21T05:36:20.781Z,99276.48
2023-04-21T05:41:28.312Z,99277.61
2023-04-21T05:46:36.195Z,99278.83
2023-04-21T05:51:44.416Z,99281.58
2023-04-21T05:56:51.695Z,99277.63
2023-04-21T06:01:59.547Z,99276.90
2023-04-21T06:07:10.826Z,99276.75
2023-04-21T06:12:18.706Z,99276.97
2023-04-21T06:17:27.092Z,99276.52
2023-04-21T06:22:34.148Z,99280.98
2023-04-21T06:27:41.479Z,99284.64
2023-04-21T06:32:49.383Z,99279.48
2023-04-21T06:37:59.886Z,99279.66
2023-04-21T06:43:07.714Z,99272.77
2023-04-21T06:48:15.526Z,99271.67
2023-04-21T06:53:23.151Z,99274.02
2023-04-21T06:58:30.390Z,99274.65
2023-04-21T07:03:38.323Z,99277.54
2023-04-21T07:08:46.406Z,99276.62
2023-04-21T07:13:53.867Z,99272.77
2023-04-21T07:19:01.603Z,99273.50
2023-04-21T07:24:10.432Z,99270.14
2023-04-21T07:29:18.376Z,99265.77
2023-04-21T07:34:26.068Z,99272.90
2023-04-21T07:39:33.556Z,99274.48
2023-04-21T07:44:41.262Z,99270.55
2023-04-21T07:49:48.552Z,99266.05
2023-04-21T07:54:56.270Z,99264.02
2023-04-21T08:00:04.452Z,99261.06
2023-04-21T08:05:12.668Z,99256.86
2023-04-21T08:10:20.054Z,99259.98
2023-04-21T08:15:27.592Z,99257.27
2023-04-21T08:20:35.206Z,99256.98
2023-04-21T08:25:42.896Z,99259.72
2023-04-21T08:30:52.617Z,99256.52
2023-04-21T08:36:07.391Z,99249.45
2023-04-21T08:41:20.858Z,99251.25
2023-04-21T08:46:31.135Z,99248.11
2023-04-21T08:51:38.839Z,99246.77
2023-04-21T08:56:46.171Z,99243.10
2023-04-21T09:02:17.242Z,99237.75
2023-04-21T09:07:44.437Z,99233.67
2023-04-21T09:12:52.080Z,99229.22
2023-04-21T09:17:59.719Z,99225.59
2023-04-21T09:23:09.346Z,99221.52
2023-04-21T09:28:17.205Z,99223.04
2023-04-21T09:33:30.992Z,99218.27
2023-04-21T09:38:41.956Z,99215.47
2023-04-21T09:43:49.702Z,99220.20
2023-04-21T09:49:01.622Z,99213.24
2023-04-21T09:54:28.206Z,99210.96
2023-04-21T09:59:39.290Z,99216.58
2023-04-21T10:04:47.423Z,99206.59
2023-04-21T10:09:59.507Z,99203.61
2023-04-21T10:15:39.348Z,99206.59
2023-04-21T10:21:03.019Z,99201.40
2023-04-21T10:26:13.562Z,99195.30
2023-04-21T10:31:27.339Z,99195.94
2023-04-21T10:36:36.253Z,99194.55
2023-04-21T10:41:46.639Z,99183.98
2023-04-21T10:46:55.198Z,99179.02
2023-04-21T10:52:12.550Z,99176.71
2023-04-21T10:57:21.541Z,99170.31
2023-04-21T11:02:29.284Z,99170.37
2023-04-21T11:07:37.179Z,99173.36
2023-04-21T11:12:44.317Z,99167.35
2023-04-21T11:17:52.900Z,99164.41
2023-04-21T11:23:00.965Z,99161.04
2023-04-21T11:28:09.091Z,99158.77
2023-04-21T11:33:17.155Z,99160.84
2023-04-21T11:38:27.367Z,99154.20
2023-04-21T11:43:35.316Z,99150.92
2023-04-21T11:48:42.661Z,99145.17
2023-04-21T11:53:51.862Z,99143.02
2023-04-21T11:58:59.322Z,99138.93
2023-04-21T12:04:07.294Z,99130.52
2023-04-21T12:09:21.104Z,99132.67
2023-04-21T12:14:29.063Z,99125.05
2023-04-21T12:19:42.621Z,99116.36
2023-04-21T12:24:50.347Z,99112.79
2023-04-21T12:29:58.309Z,99111.73
2023-04-21T12:35:06.470Z,99104.53
2023-04-21T12:40:14.725Z,99097.71
2023-04-21T12:45:22.203Z,99098.36
2023-04-21T12:50:29.849Z,99095.59
2023-04-21T12:55:41.240Z,99092.31
2023-04-21T13:00:50.394Z,99089.33
2023-04-21T13:05:58.438Z,99089.25
2023-04-21T13:11:06.637Z,99087.59
2023-04-21T13:16:14.213Z,99085.60
2023-04-21T13:21:21.716Z,99078.21
2023-04-21T13:26:29.659Z,99072.02
2023-04-21T13:31:37.661Z,99063.77
2023-04-21T13:36:45.167Z,99054.11
2023-04-21T13:41:54.101Z,99057.26
2023-04-21T13:47:02.247Z,99049.34
2023-04-21T13:52:10.003Z,99047.54
2023-04-21T13:57:19.224Z,99048.52
2023-04-21T14:02:27.040Z,99036.88
2023-04-21T14:07:36.040Z,99036.61
2023-04-21T14:12:45.238Z,99029.36
2023-04-21T14:17:53.402Z,99025.34
2023-04-21T14:23:00.937Z,99023.79
2023-04-21T14:28:09.089Z,99026.61
2023-04-21T14:33:17.198Z,99019.63
2023-04-21T14:38:25.824Z,99017.52
2023-04-21T14:43:33.474Z,99012.46
2023-04-21T14:48:43.366Z,99007.49
2023-04-21T14:53:50.831Z,99001.23
2023-04-21T14:58:58.590Z,98998.45
2023-04-21T15:04:06.813Z,98996.27
2023-04-21T15:09:14.753Z,98989.73
2023-04-21T15:14:22.148Z,98984.96
2023-04-21T15:19:29.625Z,98986.71
2023-04-21T15:24:38.012Z,98982.71
2023-04-21T15:29:45.488Z,98981.05
2023-04-21T15:34:52.976Z,98982.66
2023-04-21T15:40:00.298Z,98971.84
2023-04-21T15:45:09.347Z,98971.67
2023-04-21T15:54:42.405Z,98971.36
2023-04-21T15:59:49.722Z,98970.45
2023-04-21T16:04:57.218Z,98964.37
2023-04-21T16:10:04.560Z,98960.67
2023-04-21T16:15:23.637Z,98957.52
2023-04-21T16:20:32.014Z,98958.34
2023-04-21T16:25:40.443Z,98956.70
2023-04-21T16:30:48.519Z,98947.56
2023-04-21T16:35:57.726Z,98951.44
2023-04-21T16:41:06.992Z,98951.45
2023-04-21T16:46:14.534Z,98950.11
2023-04-21T16:51:22.037Z,98948.86
2023-04-21T16:56:29.660Z,98951.55
2023-04-21T17:01:36.888Z,98950.52
2023-04-21T17:06:44.450Z,98949.27
2023-04-21T17:11:51.665Z,98945.30
2023-04-21T17:16:59.078Z,98942.95
2023-04-21T17:22:06.583Z,98941.64
2023-04-21T17:27:13.869Z,98942.26
2023-04-21T17:32:21.596Z,98946.13
2023-04-21T17:37:30.495Z,98945.31
2023-04-21T17:42:37.947Z,98944.27
2023-04-21T17:47:45.610Z,98943.90
2023-04-21T17:52:53.379Z,98942.33
2023-04-21T17:58:00.498Z,98940.35
2023-04-21T18:03:08.071Z,98940.80
2023-04-21T18:08:16.435Z,98944.25
2023-04-21T18:13:23.817Z,98954.41
2023-04-21T18:18:32.140Z,98953.94
2023-04-21T18:23:39.388Z,98956.71
2023-04-21T18:28:46.983Z,98961.37
2023-04-21T18:33:54.364Z,98958.95
2023-04-21T18:39:02.177Z,98960.53
2023-04-21T18:44:09.824Z,98962.30
2023-04-21T18:49:17.105Z,98960.17
2023-04-21T18:54:24.525Z,98963.34
2023-04-21T18:59:32.147Z,98960.88
2023-04-21T19:04:39.895Z,98963.73
2023-04-21T19:09:47.494Z,98962.61
2023-04-21T19:14:54.748Z,98960.59
2023-04-21T19:20:02.596Z,98962.38
2023-04-21T19:25:12.160Z,98961.67
2023-04-21T19:30:19.751Z,98961.88
2023-04-21T19:35:28.124Z,98965.70
2023-04-21T19:40:35.959Z,98963.55
2023-04-21T19:45:43.324Z,98962.49
2023-04-21T19:50:51.026Z,98964.31
2023-04-21T19:55:58.425Z,98967.77
2023-04-21T20:01:05.931Z,98965.64
2023-04-21T20:06:13.650Z,98965.34
2023-04-21T20:11:21.251Z,98962.98
2023-04-21T20:16:29.284Z,98965.65
2023-04-21T20:21:36.580Z,98973.50
2023-04-21T20:26:43.831Z,98970.35
2023-04-21T20:31:51.022Z,98971.32
2023-04-21T20:36:58.438Z,98974.59
2023-04-21T20:42:12.744Z,98969.92
2023-04-21T20:47:22.115Z,98974.31
2023-04-21T20:52:29.749Z,98977.33
2023-04-21T20:57:36.931Z,98980.52
2023-04-21T21:02:42.452Z,98980.77
2023-04-21T21:07:49.905Z,98982.27
2023-04-21T21:12:58.328Z,98983.16
2023-04-21T21:18:05.772Z,98979.19
2023-04-21T21:23:13.138Z,98978.46
2023-04-21T21:28:21.065Z,98981.05
2023-04-21T21:33:28.368Z,98981.04
2023-04-21T21:38:36.197Z,98977.79
2023-04-21T21:43:43.460Z,98978.79
2023-04-21T21:48:51.513Z,98981.19
2023-04-21T21:53:58.616Z,98984.44
2023-04-21T21:59:04.073Z,98985.20
2023-04-21T22:04:11.833Z,98991.31
2023-04-21T22:09:19.608Z,98993.89
2023-04-21T22:14:26.940Z,98985.17
2023-04-21T22:19:34.232Z,98990.50
2023-04-21T22:24:41.508Z,98987.00
2023-04-21T22:29:47.250Z,98987.83
2023-04-21T22:34:54.394Z,98990.30
2023-04-21T22:40:02.303Z,98992.05
2023-04-21T22:45:11.763Z,98988.41
2023-04-21T22:50:20.004Z,98989.23
2023-04-21T22:55:27.192Z,98983.41
2023-04-21T23:00:32.666Z,98986.35
2023-04-21T23:05:39.969Z,98987.87
2023-04-21T23:10:47.775Z,98990.02
2023-04-21T23:15:55.006Z,98986.14
2023-04-21T23:21:00.550Z,98986.02
2023-04-21T23:26:07.857Z,98985.35
2023-04-21T23:31:15.007Z,98981.96
2023-04-21T23:36:21.324Z,98985.13
2023-04-21T23:41:28.757Z,98977.65
2023-04-21T23:46:36.886Z,98983.88
2023-04-21T23:51:44.269Z,98982.48
2023-04-21T23:56:49.850Z,98975.11
